sensor_id;sensor_type;location;lat;lon;timestamp;temperature;humidity
5792;DHT22;2922;53.482;10.006;2023-08-20T00:00:16;19.30;99.90
5792;DHT22;2922;53.482;10.006;2023-08-20T00:02:42;19.30;99.90
5792;DHT22;2922;53.482;10.006;2023-08-20T00:05:09;19.30;99.90
5792;DHT22;2922;53.482;10.006;2023-08-20T00:07:35;19.30;99.90
5792;DHT22;2922;53.482;10.006;2023-08-20T00:10:01;19.30;99.90
5792;DHT22;2922;53.482;10.006;2023-08-20T00:12:29;19.30;99.90
5792;DHT22;2922;53.482;10.006;2023-08-20T00:17:24;19.20;99.90
5792;DHT22;2922;53.482;10.006;2023-08-20T00:19:55;19.10;99.90
5792;DHT22;2922;53.482;10.006;2023-08-20T00:22:24;19.10;99.90
5792;DHT22;2922;53.482;10.006;2023-08-20T00:24:54;19.10;99.90
5792;DHT22;2922;53.482;10.006;2023-08-20T00:27:20;19.00;99.90
5792;DHT22;2922;53.482;10.006;2023-08-20T00:29:45;19.00;99.90
5792;DHT22;2922;53.482;10.006;2023-08-20T00:32:11;18.90;99.90
5792;DHT22;2922;53.482;10.006;2023-08-20T00:34:37;18.90;99.90
5792;DHT22;2922;53.482;10.006;2023-08-20T00:37:03;18.90;99.90
5792;DHT22;2922;53.482;10.006;2023-08-20T00:39:29;18.90;99.90
5792;DHT22;2922;53.482;10.006;2023-08-20T00:41:55;18.80;99.90
5792;DHT22;2922;53.482;10.006;2023-08-20T00:44:20;18.80;99.90
5792;DHT22;2922;53.482;10.006;2023-08-20T00:46:46;18.90;99.90
5792;DHT22;2922;53.482;10.006;2023-08-20T00:49:12;18.80;99.90
5792;DHT22;2922;53.482;10.006;2023-08-20T00:51:38;18.80;99.90
5792;DHT22;2922;53.482;10.006;2023-08-20T00:54:04;18.80;99.90
5792;DHT22;2922;53.482;10.006;2023-08-20T00:56:30;18.70;99.90
5792;DHT22;2922;53.482;10.006;2023-08-20T00:58:56;18.70;99.90
5792;DHT22;2922;53.482;10.006;2023-08-20T01:01:24;18.70;99.90
5792;DHT22;2922;53.482;10.006;2023-08-20T01:03:50;18.70;99.90
5792;DHT22;2922;53.482;10.006;2023-08-20T01:06:29;18.70;99.90
5792;DHT22;2922;53.482;10.006;2023-08-20T01:09:03;18.60;99.90
5792;DHT22;2922;53.482;10.006;2023-08-20T01:11:36;18.60;99.90
5792;DHT22;2922;53.482;10.006;2023-08-20T01:14:03;18.60;99.90
5792;DHT22;2922;53.482;10.006;2023-08-20T01:16:39;18.50;99.90
5792;DHT22;2922;53.482;10.006;2023-08-20T01:19:05;18.50;99.90
5792;DHT22;2922;53.482;10.006;2023-08-20T01:21:39;18.40;99.90
5792;DHT22;2922;53.482;10.006;2023-08-20T01:24:20;18.40;99.90
5792;DHT22;2922;53.482;10.006;2023-08-20T01:27:08;18.40;99.90
5792;DHT22;2922;53.482;10.006;2023-08-20T01:29:37;18.30;99.90
5792;DHT22;2922;53.482;10.006;2023-08-20T01:32:04;18.30;99.90
5792;DHT22;2922;53.482;10.006;2023-08-20T01:34:31;18.30;99.90
5792;DHT22;2922;53.482;10.006;2023-08-20T01:36:56;18.20;99.90
5792;DHT22;2922;53.482;10.006;2023-08-20T01:39:22;18.20;99.90
5792;DHT22;2922;53.482;10.006;2023-08-20T01:41:48;18.10;99.90
5792;DHT22;2922;53.482;10.006;2023-08-20T01:44:14;18.20;99.90
5792;DHT22;2922;53.482;10.006;2023-08-20T01:46:39;18.00;99.90
5792;DHT22;2922;53.482;10.006;2023-08-20T01:49:05;18.00;99.90
5792;DHT22;2922;53.482;10.006;2023-08-20T01:51:31;18.00;99.90
5792;DHT22;2922;53.482;10.006;2023-08-20T01:53:56;18.00;99.90
5792;DHT22;2922;53.482;10.006;2023-08-20T01:56:22;17.90;99.90
5792;DHT22;2922;53.482;10.006;2023-08-20T01:58:47;17.90;99.90
5792;DHT22;2922;53.482;10.006;2023-08-20T02:01:13;17.90;99.90
5792;DHT22;2922;53.482;10.006;2023-08-20T02:03:38;17.90;99.90
5792;DHT22;2922;53.482;10.006;2023-08-20T02:06:04;17.80;99.90
5792;DHT22;2922;53.482;10.006;2023-08-20T02:08:30;17.80;99.90
5792;DHT22;2922;53.482;10.006;2023-08-20T02:11:02;17.70;99.90
5792;DHT22;2922;53.482;10.006;2023-08-20T02:13:28;17.60;99.90
5792;DHT22;2922;53.482;10.006;2023-08-20T02:16:04;17.60;99.90
5792;DHT22;2922;53.482;10.006;2023-08-20T02:18:30;17.50;99.90
5792;DHT22;2922;53.482;10.006;2023-08-20T02:20:56;17.60;99.90
5792;DHT22;2922;53.482;10.006;2023-08-20T02:23:22;17.50;99.90
5792;DHT22;2922;53.482;10.006;2023-08-20T02:25:48;17.50;99.90
5792;DHT22;2922;53.482;10.006;2023-08-20T02:28:14;17.50;99.90
5792;DHT22;2922;53.482;10.006;2023-08-20T02:30:44;17.40;99.90
5792;DHT22;2922;53.482;10.006;2023-08-20T02:33:09;17.40;99.90
5792;DHT22;2922;53.482;10.006;2023-08-20T02:35:36;17.40;99.90
5792;DHT22;2922;53.482;10.006;2023-08-20T02:38:02;17.40;99.90
5792;DHT22;2922;53.482;10.006;2023-08-20T02:40:27;17.30;99.90
5792;DHT22;2922;53.482;10.006;2023-08-20T02:42:53;17.40;99.90
5792;DHT22;2922;53.482;10.006;2023-08-20T02:45:18;17.20;99.90
5792;DHT22;2922;53.482;10.006;2023-08-20T02:47:44;17.20;99.90
5792;DHT22;2922;53.482;10.006;2023-08-20T02:50:10;17.20;99.90
5792;DHT22;2922;53.482;10.006;2023-08-20T02:52:36;17.20;99.90
5792;DHT22;2922;53.482;10.006;2023-08-20T02:55:02;17.20;99.90
5792;DHT22;2922;53.482;10.006;2023-08-20T02:57:30;17.10;99.90
5792;DHT22;2922;53.482;10.006;2023-08-20T02:59:56;17.10;99.90
5792;DHT22;2922;53.482;10.006;2023-08-20T03:02:22;17.10;99.90
5792;DHT22;2922;53.482;10.006;2023-08-20T03:04:47;17.00;99.90
5792;DHT22;2922;53.482;10.006;2023-08-20T03:07:13;17.00;99.90
5792;DHT22;2922;53.482;10.006;2023-08-20T03:09:39;17.00;99.90
5792;DHT22;2922;53.482;10.006;2023-08-20T03:12:04;16.90;99.90
5792;DHT22;2922;53.482;10.006;2023-08-20T03:14:30;16.90;99.90
5792;DHT22;2922;53.482;10.006;2023-08-20T03:16:56;16.90;99.90
5792;DHT22;2922;53.482;10.006;2023-08-20T03:19:21;16.90;99.90
5792;DHT22;2922;53.482;10.006;2023-08-20T03:21:47;16.80;99.90
5792;DHT22;2922;53.482;10.006;2023-08-20T03:24:12;16.80;99.90
5792;DHT22;2922;53.482;10.006;2023-08-20T03:26:38;16.80;99.90
5792;DHT22;2922;53.482;10.006;2023-08-20T03:29:04;16.80;99.90
5792;DHT22;2922;53.482;10.006;2023-08-20T03:31:29;16.80;99.90
5792;DHT22;2922;53.482;10.006;2023-08-20T03:33:55;16.70;99.90
5792;DHT22;2922;53.482;10.006;2023-08-20T03:36:20;16.70;99.90
5792;DHT22;2922;53.482;10.006;2023-08-20T03:38:46;16.70;99.90
5792;DHT22;2922;53.482;10.006;2023-08-20T03:41:12;16.60;99.90
5792;DHT22;2922;53.482;10.006;2023-08-20T03:43:37;16.70;99.90
5792;DHT22;2922;53.482;10.006;2023-08-20T03:46:03;16.60;99.90
5792;DHT22;2922;53.482;10.006;2023-08-20T03:48:29;16.60;99.90
5792;DHT22;2922;53.482;10.006;2023-08-20T03:50:54;16.50;99.90
5792;DHT22;2922;53.482;10.006;2023-08-20T03:53:21;16.60;99.90
5792;DHT22;2922;53.482;10.006;2023-08-20T03:55:49;16.50;99.90
5792;DHT22;2922;53.482;10.006;2023-08-20T03:58:16;16.50;99.90
5792;DHT22;2922;53.482;10.006;2023-08-20T04:00:42;16.50;99.90
5792;DHT22;2922;53.482;10.006;2023-08-20T04:03:07;16.40;99.90
5792;DHT22;2922;53.482;10.006;2023-08-20T04:05:39;16.40;99.90
5792;DHT22;2922;53.482;10.006;2023-08-20T04:08:05;16.40;99.90
5792;DHT22;2922;53.482;10.006;2023-08-20T04:10:31;16.40;99.90
5792;DHT22;2922;53.482;10.006;2023-08-20T04:12:58;16.40;99.90
5792;DHT22;2922;53.482;10.006;2023-08-20T04:15:23;16.30;99.90
5792;DHT22;2922;53.482;10.006;2023-08-20T04:17:49;16.40;99.90
5792;DHT22;2922;53.482;10.006;2023-08-20T04:20:15;16.30;99.90
5792;DHT22;2922;53.482;10.006;2023-08-20T04:22:41;16.30;99.90
5792;DHT22;2922;53.482;10.006;2023-08-20T04:25:07;16.30;99.90
5792;DHT22;2922;53.482;10.006;2023-08-20T04:27:33;16.30;99.90
5792;DHT22;2922;53.482;10.006;2023-08-20T04:29:59;16.30;99.90
5792;DHT22;2922;53.482;10.006;2023-08-20T04:32:25;16.20;99.90
5792;DHT22;2922;53.482;10.006;2023-08-20T04:34:50;16.20;99.90
5792;DHT22;2922;53.482;10.006;2023-08-20T04:37:20;16.20;99.90
5792;DHT22;2922;53.482;10.006;2023-08-20T04:39:45;16.20;99.90
5792;DHT22;2922;53.482;10.006;2023-08-20T04:42:11;16.20;99.90
5792;DHT22;2922;53.482;10.006;2023-08-20T04:44:39;16.20;99.90
5792;DHT22;2922;53.482;10.006;2023-08-20T04:47:04;16.30;99.90
5792;DHT22;2922;53.482;10.006;2023-08-20T04:49:30;16.20;99.90
5792;DHT22;2922;53.482;10.006;2023-08-20T04:51:56;16.30;99.90
5792;DHT22;2922;53.482;10.006;2023-08-20T04:54:21;16.30;99.90
5792;DHT22;2922;53.482;10.006;2023-08-20T07:51:03;21.30;99.90
5792;DHT22;2922;53.482;10.006;2023-08-20T07:53:30;21.60;99.90
5792;DHT22;2922;53.482;10.006;2023-08-20T07:55:55;21.60;99.90
5792;DHT22;2922;53.482;10.006;2023-08-20T07:58:21;21.70;99.90
5792;DHT22;2922;53.482;10.006;2023-08-20T08:00:47;21.90;99.90
5792;DHT22;2922;53.482;10.006;2023-08-20T08:03:13;22.20;99.90
5792;DHT22;2922;53.482;10.006;2023-08-20T08:05:40;22.30;99.90
5792;DHT22;2922;53.482;10.006;2023-08-20T08:08:06;22.30;99.90
5792;DHT22;2922;53.482;10.006;2023-08-20T08:10:32;22.30;99.90
5792;DHT22;2922;53.482;10.006;2023-08-20T08:12:57;22.50;99.90
5792;DHT22;2922;53.482;10.006;2023-08-20T08:15:23;22.50;99.90
5792;DHT22;2922;53.482;10.006;2023-08-20T08:17:48;22.60;99.90
5792;DHT22;2922;53.482;10.006;2023-08-20T08:20:14;22.70;99.90
5792;DHT22;2922;53.482;10.006;2023-08-20T08:22:40;22.80;99.90
5792;DHT22;2922;53.482;10.006;2023-08-20T08:25:06;22.80;99.90
5792;DHT22;2922;53.482;10.006;2023-08-20T08:27:31;23.00;99.90
5792;DHT22;2922;53.482;10.006;2023-08-20T08:29:57;23.10;99.90
5792;DHT22;2922;53.482;10.006;2023-08-20T08:32:23;23.00;99.90
5792;DHT22;2922;53.482;10.006;2023-08-20T08:34:49;23.00;99.90
5792;DHT22;2922;53.482;10.006;2023-08-20T08:37:14;23.20;99.90
5792;DHT22;2922;53.482;10.006;2023-08-20T08:39:41;23.40;99.90
5792;DHT22;2922;53.482;10.006;2023-08-20T08:42:06;23.60;99.90
5792;DHT22;2922;53.482;10.006;2023-08-20T08:44:33;23.60;99.90
5792;DHT22;2922;53.482;10.006;2023-08-20T08:46:59;23.80;99.90
5792;DHT22;2922;53.482;10.006;2023-08-20T08:49:25;24.00;99.90
5792;DHT22;2922;53.482;10.006;2023-08-20T08:51:56;24.10;99.90
5792;DHT22;2922;53.482;10.006;2023-08-20T08:54:23;24.00;99.90
5792;DHT22;2922;53.482;10.006;2023-08-20T08:56:49;24.00;99.90
5792;DHT22;2922;53.482;10.006;2023-08-20T08:59:15;24.00;99.90
5792;DHT22;2922;53.482;10.006;2023-08-20T09:01:41;24.10;99.90
5792;DHT22;2922;53.482;10.006;2023-08-20T09:04:06;24.20;99.90
5792;DHT22;2922;53.482;10.006;2023-08-20T09:06:48;24.20;99.90
5792;DHT22;2922;53.482;10.006;2023-08-20T09:09:16;24.30;99.90
5792;DHT22;2922;53.482;10.006;2023-08-20T09:11:41;24.40;99.90
5792;DHT22;2922;53.482;10.006;2023-08-20T09:14:07;24.50;99.90
5792;DHT22;2922;53.482;10.006;2023-08-20T09:16:33;24.80;99.90
5792;DHT22;2922;53.482;10.006;2023-08-20T09:19:02;24.90;99.90
5792;DHT22;2922;53.482;10.006;2023-08-20T09:21:28;25.00;99.90
5792;DHT22;2922;53.482;10.006;2023-08-20T09:23:55;24.80;99.90
5792;DHT22;2922;53.482;10.006;2023-08-20T09:26:20;24.80;99.90
5792;DHT22;2922;53.482;10.006;2023-08-20T09:28:46;25.00;99.90
5792;DHT22;2922;53.482;10.006;2023-08-20T09:31:13;25.10;99.90
5792;DHT22;2922;53.482;10.006;2023-08-20T09:33:52;25.10;99.90
5792;DHT22;2922;53.482;10.006;2023-08-20T09:36:19;25.10;99.90
5792;DHT22;2922;53.482;10.006;2023-08-20T09:38:44;25.20;99.90
5792;DHT22;2922;53.482;10.006;2023-08-20T09:41:12;25.30;99.90
5792;DHT22;2922;53.482;10.006;2023-08-20T09:43:38;25.50;99.90
5792;DHT22;2922;53.482;10.006;2023-08-20T09:46:05;25.70;99.90
5792;DHT22;2922;53.482;10.006;2023-08-20T10:06:40;26.30;99.90
5792;DHT22;2922;53.482;10.006;2023-08-20T10:09:07;25.90;99.90
5792;DHT22;2922;53.482;10.006;2023-08-20T10:11:32;25.80;99.90
5792;DHT22;2922;53.482;10.006;2023-08-20T10:13:58;25.70;99.90
5792;DHT22;2922;53.482;10.006;2023-08-20T10:16:27;25.80;99.90
5792;DHT22;2922;53.482;10.006;2023-08-20T10:18:53;26.00;99.90
5792;DHT22;2922;53.482;10.006;2023-08-20T10:21:23;26.30;99.90
5792;DHT22;2922;53.482;10.006;2023-08-20T10:23:50;26.30;99.90
5792;DHT22;2922;53.482;10.006;2023-08-20T10:26:15;26.20;99.90
5792;DHT22;2922;53.482;10.006;2023-08-20T10:28:42;26.10;99.90
5792;DHT22;2922;53.482;10.006;2023-08-20T10:31:12;26.30;99.90
5792;DHT22;2922;53.482;10.006;2023-08-20T10:33:57;26.30;99.90
5792;DHT22;2922;53.482;10.006;2023-08-20T10:36:24;26.30;99.90
5792;DHT22;2922;53.482;10.006;2023-08-20T10:38:55;26.40;99.90
5792;DHT22;2922;53.482;10.006;2023-08-20T10:41:26;26.80;99.90
5792;DHT22;2922;53.482;10.006;2023-08-20T10:43:52;27.10;99.90
5792;DHT22;2922;53.482;10.006;2023-08-20T10:46:19;27.10;99.90
5792;DHT22;2922;53.482;10.006;2023-08-20T10:51:17;26.70;99.90
5792;DHT22;2922;53.482;10.006;2023-08-20T10:56:54;26.70;99.90
5792;DHT22;2922;53.482;10.006;2023-08-20T10:59:21;26.90;99.90
5792;DHT22;2922;53.482;10.006;2023-08-20T11:01:48;27.20;99.90
5792;DHT22;2922;53.482;10.006;2023-08-20T11:04:18;27.10;99.90
5792;DHT22;2922;53.482;10.006;2023-08-20T11:06:45;27.40;99.90
5792;DHT22;2922;53.482;10.006;2023-08-20T11:09:11;27.60;99.90
5792;DHT22;2922;53.482;10.006;2023-08-20T11:11:41;27.20;99.90
5792;DHT22;2922;53.482;10.006;2023-08-20T11:14:11;27.10;99.90
5792;DHT22;2922;53.482;10.006;2023-08-20T11:16:39;27.10;99.90
5792;DHT22;2922;53.482;10.006;2023-08-20T11:19:05;27.60;99.90
5792;DHT22;2922;53.482;10.006;2023-08-20T11:21:34;27.70;99.90
5792;DHT22;2922;53.482;10.006;2023-08-20T11:24:01;27.90;99.90
5792;DHT22;2922;53.482;10.006;2023-08-20T11:26:27;28.00;99.90
5792;DHT22;2922;53.482;10.006;2023-08-20T11:28:53;28.10;99.90
5792;DHT22;2922;53.482;10.006;2023-08-20T11:31:19;27.80;99.90
5792;DHT22;2922;53.482;10.006;2023-08-20T11:33:45;27.30;99.90
5792;DHT22;2922;53.482;10.006;2023-08-20T11:36:10;27.20;99.90
5792;DHT22;2922;53.482;10.006;2023-08-20T11:38:36;27.00;99.90
5792;DHT22;2922;53.482;10.006;2023-08-20T11:41:02;27.00;99.90
5792;DHT22;2922;53.482;10.006;2023-08-20T11:43:29;26.60;99.90
5792;DHT22;2922;53.482;10.006;2023-08-20T11:45:54;26.50;99.90
5792;DHT22;2922;53.482;10.006;2023-08-20T11:48:22;26.80;99.90
5792;DHT22;2922;53.482;10.006;2023-08-20T11:50:49;26.90;99.90
5792;DHT22;2922;53.482;10.006;2023-08-20T11:53:15;27.20;99.90
5792;DHT22;2922;53.482;10.006;2023-08-20T11:55:40;27.20;99.90
5792;DHT22;2922;53.482;10.006;2023-08-20T11:58:12;27.40;99.90
5792;DHT22;2922;53.482;10.006;2023-08-20T12:00:38;27.90;99.90
5792;DHT22;2922;53.482;10.006;2023-08-20T12:03:04;28.40;99.90
5792;DHT22;2922;53.482;10.006;2023-08-20T12:05:31;28.40;99.90
5792;DHT22;2922;53.482;10.006;2023-08-20T12:08:03;28.60;99.90
5792;DHT22;2922;53.482;10.006;2023-08-20T12:10:31;28.50;99.90
5792;DHT22;2922;53.482;10.006;2023-08-20T12:12:57;28.50;99.90
5792;DHT22;2922;53.482;10.006;2023-08-20T12:15:24;28.90;99.90
5792;DHT22;2922;53.482;10.006;2023-08-20T12:20:30;28.80;99.90
5792;DHT22;2922;53.482;10.006;2023-08-20T12:23:01;28.70;99.90
5792;DHT22;2922;53.482;10.006;2023-08-20T12:25:30;28.60;99.90
5792;DHT22;2922;53.482;10.006;2023-08-20T12:27:56;28.20;99.90
5792;DHT22;2922;53.482;10.006;2023-08-20T12:30:22;28.40;99.90
5792;DHT22;2922;53.482;10.006;2023-08-20T12:32:47;28.50;99.90
5792;DHT22;2922;53.482;10.006;2023-08-20T12:35:13;28.60;99.90
5792;DHT22;2922;53.482;10.006;2023-08-20T12:37:39;28.60;99.90
5792;DHT22;2922;53.482;10.006;2023-08-20T12:40:09;28.90;99.90
5792;DHT22;2922;53.482;10.006;2023-08-20T12:42:37;29.10;99.90
5792;DHT22;2922;53.482;10.006;2023-08-20T12:45:05;29.60;99.90
5792;DHT22;2922;53.482;10.006;2023-08-20T12:47:31;29.70;99.90
5792;DHT22;2922;53.482;10.006;2023-08-20T12:49:57;29.80;99.90
5792;DHT22;2922;53.482;10.006;2023-08-20T12:52:23;29.80;99.90
5792;DHT22;2922;53.482;10.006;2023-08-20T12:54:48;29.80;99.90
5792;DHT22;2922;53.482;10.006;2023-08-20T12:57:14;29.80;99.90
5792;DHT22;2922;53.482;10.006;2023-08-20T12:59:39;29.80;99.90
5792;DHT22;2922;53.482;10.006;2023-08-20T13:02:05;29.50;99.90
5792;DHT22;2922;53.482;10.006;2023-08-20T13:04:31;29.20;99.90
5792;DHT22;2922;53.482;10.006;2023-08-20T13:06:57;28.90;99.90
5792;DHT22;2922;53.482;10.006;2023-08-20T13:09:23;28.60;99.90
5792;DHT22;2922;53.482;10.006;2023-08-20T13:11:49;28.40;99.90
5792;DHT22;2922;53.482;10.006;2023-08-20T13:14:17;28.30;99.90
5792;DHT22;2922;53.482;10.006;2023-08-20T13:16:43;28.30;99.90
5792;DHT22;2922;53.482;10.006;2023-08-20T13:19:09;28.20;99.90
5792;DHT22;2922;53.482;10.006;2023-08-20T13:21:35;28.20;99.90
5792;DHT22;2922;53.482;10.006;2023-08-20T13:24:00;27.90;99.90
5792;DHT22;2922;53.482;10.006;2023-08-20T13:26:26;27.90;99.90
5792;DHT22;2922;53.482;10.006;2023-08-20T13:28:52;27.90;99.90
5792;DHT22;2922;53.482;10.006;2023-08-20T13:31:17;28.00;99.90
5792;DHT22;2922;53.482;10.006;2023-08-20T13:33:43;28.10;99.90
5792;DHT22;2922;53.482;10.006;2023-08-20T13:36:08;27.90;99.90
5792;DHT22;2922;53.482;10.006;2023-08-20T13:38:34;27.70;99.90
5792;DHT22;2922;53.482;10.006;2023-08-20T13:40:59;27.90;99.90
5792;DHT22;2922;53.482;10.006;2023-08-20T13:43:25;27.90;99.90
5792;DHT22;2922;53.482;10.006;2023-08-20T13:45:51;28.00;99.90
5792;DHT22;2922;53.482;10.006;2023-08-20T13:48:16;27.90;99.90
5792;DHT22;2922;53.482;10.006;2023-08-20T13:50:42;27.90;99.90
5792;DHT22;2922;53.482;10.006;2023-08-20T13:53:08;27.70;99.90
5792;DHT22;2922;53.482;10.006;2023-08-20T13:55:34;27.80;99.90
5792;DHT22;2922;53.482;10.006;2023-08-20T13:57:59;27.80;99.90
5792;DHT22;2922;53.482;10.006;2023-08-20T14:00:25;27.80;99.90
5792;DHT22;2922;53.482;10.006;2023-08-20T14:02:51;27.60;99.90
5792;DHT22;2922;53.482;10.006;2023-08-20T14:05:16;27.60;99.90
5792;DHT22;2922;53.482;10.006;2023-08-20T14:07:42;27.40;99.90
5792;DHT22;2922;53.482;10.006;2023-08-20T14:10:08;27.40;99.90
5792;DHT22;2922;53.482;10.006;2023-08-20T14:12:34;27.30;99.90
5792;DHT22;2922;53.482;10.006;2023-08-20T14:14:59;27.30;99.90
5792;DHT22;2922;53.482;10.006;2023-08-20T14:17:25;27.30;99.90
5792;DHT22;2922;53.482;10.006;2023-08-20T14:19:51;27.30;99.90
5792;DHT22;2922;53.482;10.006;2023-08-20T14:22:17;27.20;99.90
5792;DHT22;2922;53.482;10.006;2023-08-20T14:24:43;27.00;99.90
5792;DHT22;2922;53.482;10.006;2023-08-20T14:27:08;26.90;99.90
5792;DHT22;2922;53.482;10.006;2023-08-20T14:29:35;26.90;99.90
5792;DHT22;2922;53.482;10.006;2023-08-20T14:32:01;27.00;99.90
5792;DHT22;2922;53.482;10.006;2023-08-20T14:34:27;27.10;99.90
5792;DHT22;2922;53.482;10.006;2023-08-20T14:36:52;27.00;99.90
5792;DHT22;2922;53.482;10.006;2023-08-20T14:39:18;26.80;99.90
5792;DHT22;2922;53.482;10.006;2023-08-20T14:41:43;26.70;99.90
5792;DHT22;2922;53.482;10.006;2023-08-20T14:44:09;26.80;99.90
5792;DHT22;2922;53.482;10.006;2023-08-20T14:46:34;26.80;99.90
5792;DHT22;2922;53.482;10.006;2023-08-20T14:49:00;26.90;99.90
5792;DHT22;2922;53.482;10.006;2023-08-20T14:51:26;26.70;99.90
5792;DHT22;2922;53.482;10.006;2023-08-20T14:53:51;26.70;99.90
5792;DHT22;2922;53.482;10.006;2023-08-20T14:56:17;26.70;99.90
5792;DHT22;2922;53.482;10.006;2023-08-20T14:58:42;26.70;99.90
5792;DHT22;2922;53.482;10.006;2023-08-20T15:01:08;26.70;99.90
5792;DHT22;2922;53.482;10.006;2023-08-20T15:03:34;26.60;99.90
5792;DHT22;2922;53.482;10.006;2023-08-20T15:05:59;26.70;99.90
5792;DHT22;2922;53.482;10.006;2023-08-20T15:08:25;26.60;99.90
5792;DHT22;2922;53.482;10.006;2023-08-20T15:11:00;26.50;99.90
5792;DHT22;2922;53.482;10.006;2023-08-20T15:13:31;26.60;99.90
5792;DHT22;2922;53.482;10.006;2023-08-20T15:15:57;26.60;99.90
5792;DHT22;2922;53.482;10.006;2023-08-20T15:18:23;26.60;99.90
5792;DHT22;2922;53.482;10.006;2023-08-20T15:20:59;26.60;99.90
5792;DHT22;2922;53.482;10.006;2023-08-20T15:23:26;26.40;99.90
5792;DHT22;2922;53.482;10.006;2023-08-20T15:25:53;26.30;99.90
5792;DHT22;2922;53.482;10.006;2023-08-20T15:28:20;26.30;99.90
5792;DHT22;2922;53.482;10.006;2023-08-20T15:30:45;26.40;99.90
5792;DHT22;2922;53.482;10.006;2023-08-20T15:33:11;26.50;99.90
5792;DHT22;2922;53.482;10.006;2023-08-20T15:35:36;26.50;99.90
5792;DHT22;2922;53.482;10.006;2023-08-20T15:38:02;26.50;99.90
5792;DHT22;2922;53.482;10.006;2023-08-20T15:40:28;26.60;99.90
5792;DHT22;2922;53.482;10.006;2023-08-20T15:42:53;26.50;99.90
5792;DHT22;2922;53.482;10.006;2023-08-20T15:45:19;26.50;99.90
5792;DHT22;2922;53.482;10.006;2023-08-20T15:47:45;26.60;99.90
5792;DHT22;2922;53.482;10.006;2023-08-20T15:50:10;26.60;99.90
5792;DHT22;2922;53.482;10.006;2023-08-20T15:52:36;26.50;99.90
5792;DHT22;2922;53.482;10.006;2023-08-20T15:55:01;26.70;99.90
5792;DHT22;2922;53.482;10.006;2023-08-20T15:57:29;26.60;99.90
5792;DHT22;2922;53.482;10.006;2023-08-20T15:59:55;26.60;99.90
5792;DHT22;2922;53.482;10.006;2023-08-20T16:02:20;26.70;99.90
5792;DHT22;2922;53.482;10.006;2023-08-20T16:04:46;26.70;99.90
5792;DHT22;2922;53.482;10.006;2023-08-20T16:07:12;26.70;99.90
5792;DHT22;2922;53.482;10.006;2023-08-20T16:09:37;26.70;99.90
5792;DHT22;2922;53.482;10.006;2023-08-20T16:12:04;26.70;99.90
5792;DHT22;2922;53.482;10.006;2023-08-20T16:14:29;26.70;99.90
5792;DHT22;2922;53.482;10.006;2023-08-20T16:16:55;26.70;99.90
5792;DHT22;2922;53.482;10.006;2023-08-20T16:19:20;26.70;99.90
5792;DHT22;2922;53.482;10.006;2023-08-20T16:21:47;26.70;99.90
5792;DHT22;2922;53.482;10.006;2023-08-20T16:24:12;26.80;99.90
5792;DHT22;2922;53.482;10.006;2023-08-20T16:26:38;26.80;99.90
5792;DHT22;2922;53.482;10.006;2023-08-20T16:29:04;26.80;99.90
5792;DHT22;2922;53.482;10.006;2023-08-20T16:31:29;26.80;99.90
5792;DHT22;2922;53.482;10.006;2023-08-20T16:33:55;26.60;99.90
5792;DHT22;2922;53.482;10.006;2023-08-20T16:36:21;26.70;99.90
5792;DHT22;2922;53.482;10.006;2023-08-20T16:38:46;26.70;99.90
5792;DHT22;2922;53.482;10.006;2023-08-20T16:41:12;26.70;99.90
5792;DHT22;2922;53.482;10.006;2023-08-20T16:43:38;26.70;99.90
5792;DHT22;2922;53.482;10.006;2023-08-20T16:46:03;26.60;99.90
5792;DHT22;2922;53.482;10.006;2023-08-20T16:48:29;26.60;99.90
5792;DHT22;2922;53.482;10.006;2023-08-20T16:50:59;26.70;99.90
5792;DHT22;2922;53.482;10.006;2023-08-20T16:53:25;26.80;99.90
5792;DHT22;2922;53.482;10.006;2023-08-20T16:55:52;26.80;99.90
5792;DHT22;2922;53.482;10.006;2023-08-20T16:58:18;26.70;99.90
5792;DHT22;2922;53.482;10.006;2023-08-20T17:00:44;26.70;99.90
5792;DHT22;2922;53.482;10.006;2023-08-20T17:03:09;26.70;99.90
5792;DHT22;2922;53.482;10.006;2023-08-20T17:05:35;26.70;99.90
5792;DHT22;2922;53.482;10.006;2023-08-20T17:08:00;26.70;99.90
5792;DHT22;2922;53.482;10.006;2023-08-20T17:10:26;26.70;99.90
5792;DHT22;2922;53.482;10.006;2023-08-20T17:12:52;26.60;99.90
5792;DHT22;2922;53.482;10.006;2023-08-20T17:15:18;26.70;99.90
5792;DHT22;2922;53.482;10.006;2023-08-20T17:17:45;26.60;99.90
5792;DHT22;2922;53.482;10.006;2023-08-20T17:20:11;26.50;99.90
5792;DHT22;2922;53.482;10.006;2023-08-20T17:22:37;26.50;99.90
5792;DHT22;2922;53.482;10.006;2023-08-20T17:25:03;26.40;99.90
5792;DHT22;2922;53.482;10.006;2023-08-20T17:27:28;26.30;99.90
5792;DHT22;2922;53.482;10.006;2023-08-20T17:29:54;26.10;99.90
5792;DHT22;2922;53.482;10.006;2023-08-20T17:32:20;26.00;99.90
5792;DHT22;2922;53.482;10.006;2023-08-20T17:34:46;25.80;99.90
5792;DHT22;2922;53.482;10.006;2023-08-20T17:37:11;25.80;99.90
5792;DHT22;2922;53.482;10.006;2023-08-20T17:39:37;25.80;99.90
5792;DHT22;2922;53.482;10.006;2023-08-20T17:42:03;25.80;99.90
5792;DHT22;2922;53.482;10.006;2023-08-20T17:44:28;25.80;99.90
5792;DHT22;2922;53.482;10.006;2023-08-20T17:46:54;25.80;99.90
5792;DHT22;2922;53.482;10.006;2023-08-20T17:49:19;25.80;99.90
5792;DHT22;2922;53.482;10.006;2023-08-20T17:51:45;25.80;99.90
5792;DHT22;2922;53.482;10.006;2023-08-20T17:54:11;25.70;99.90
5792;DHT22;2922;53.482;10.006;2023-08-20T17:56:37;25.60;99.90
5792;DHT22;2922;53.482;10.006;2023-08-20T17:59:05;25.60;99.90
5792;DHT22;2922;53.482;10.006;2023-08-20T18:01:31;25.50;99.90
5792;DHT22;2922;53.482;10.006;2023-08-20T18:03:57;25.50;99.90
5792;DHT22;2922;53.482;10.006;2023-08-20T18:06:22;25.50;99.90
5792;DHT22;2922;53.482;10.006;2023-08-20T18:08:48;25.40;99.90
5792;DHT22;2922;53.482;10.006;2023-08-20T18:11:14;25.40;99.90
5792;DHT22;2922;53.482;10.006;2023-08-20T18:13:41;25.20;99.90
5792;DHT22;2922;53.482;10.006;2023-08-20T18:16:06;25.10;99.90
5792;DHT22;2922;53.482;10.006;2023-08-20T18:18:34;25.00;99.90
5792;DHT22;2922;53.482;10.006;2023-08-20T18:20:59;24.90;99.90
5792;DHT22;2922;53.482;10.006;2023-08-20T18:23:25;24.80;99.90
5792;DHT22;2922;53.482;10.006;2023-08-20T18:25:52;24.70;99.90
5792;DHT22;2922;53.482;10.006;2023-08-20T18:28:18;24.60;99.90
5792;DHT22;2922;53.482;10.006;2023-08-20T18:30:51;24.60;99.90
5792;DHT22;2922;53.482;10.006;2023-08-20T18:33:18;24.50;99.90
5792;DHT22;2922;53.482;10.006;2023-08-20T18:35:43;24.50;99.90
5792;DHT22;2922;53.482;10.006;2023-08-20T18:38:18;24.50;99.90
5792;DHT22;2922;53.482;10.006;2023-08-20T18:41:02;24.40;99.90
5792;DHT22;2922;53.482;10.006;2023-08-20T18:43:28;24.40;99.90
5792;DHT22;2922;53.482;10.006;2023-08-20T18:45:54;24.30;99.90
5792;DHT22;2922;53.482;10.006;2023-08-20T18:48:20;24.30;99.90
5792;DHT22;2922;53.482;10.006;2023-08-20T18:50:46;24.20;99.90
5792;DHT22;2922;53.482;10.006;2023-08-20T18:53:12;24.20;99.90
5792;DHT22;2922;53.482;10.006;2023-08-20T18:55:37;24.20;99.90
5792;DHT22;2922;53.482;10.006;2023-08-20T18:58:04;24.10;99.90
5792;DHT22;2922;53.482;10.006;2023-08-20T19:00:29;24.10;99.90
5792;DHT22;2922;53.482;10.006;2023-08-20T19:02:55;24.00;99.90